Time;durP1;ratioP1;P1;durP2;ratioP2;P2;SDS_P1;SDS_P2;PMS_P1;PMS_P2;Temp;Humidity;BMP_temperature;BMP_pressure;BME280_temperature;BME280_humidity;BME280_pressure;Samples;Min_cycle;Max_cycle;Signal;HPM_P1;HPM_P2
2022/07/04 00:02:15;;;;;;;2.30;1.20;;;16.30;99.90;;;;;;5110905;28;20215;-81
2022/07/04 00:04:42;;;;;;;4.00;1.33;;;16.30;99.90;;;;;;5108577;28;20211;-82
2022/07/04 00:07:09;;;;;;;3.00;1.23;;;16.30;99.90;;;;;;5109734;28;20204;-80
2022/07/04 00:09:37;;;;;;;3.28;1.60;;;16.20;99.90;;;;;;5100967;28;20265;-80
2022/07/04 00:12:05;;;;;;;5.00;1.43;;;16.20;99.90;;;;;;5109303;28;20211;-81
2022/07/04 00:14:31;;;;;;;3.58;1.45;;;16.20;99.90;;;;;;5109915;28;20660;-81
2022/07/04 00:16:58;;;;;;;4.22;1.77;;;16.20;99.90;;;;;;5109494;28;20342;-80
2022/07/04 00:19:25;;;;;;;3.95;1.40;;;16.10;99.90;;;;;;5109197;28;20283;-79
2022/07/04 00:21:52;;;;;;;6.53;2.40;;;16.10;99.90;;;;;;5109126;28;20670;-79
2022/07/04 00:24:19;;;;;;;4.90;1.65;;;16.00;99.90;;;;;;5102906;28;20768;-80
2022/07/04 00:26:48;;;;;;;6.60;1.65;;;16.00;99.90;;;;;;5103176;28;20218;-81
2022/07/04 00:29:15;;;;;;;3.42;1.52;;;16.00;99.90;;;;;;5100366;28;20206;-80
2022/07/04 00:31:41;;;;;;;5.70;1.90;;;16.00;99.90;;;;;;5109428;28;20245;-80
2022/07/04 00:34:08;;;;;;;6.93;2.37;;;16.00;99.90;;;;;;5109662;28;20246;-80
2022/07/04 00:36:35;;;;;;;4.30;1.52;;;15.90;99.90;;;;;;5108961;28;20240;-82
2022/07/04 00:39:03;;;;;;;9.57;1.98;;;15.90;99.90;;;;;;5109717;28;20295;-80
2022/07/04 00:41:29;;;;;;;6.15;1.70;;;15.90;99.90;;;;;;5109039;28;20211;-82
2022/07/04 00:44:02;;;;;;;8.88;1.80;;;15.90;99.90;;;;;;5109732;28;20867;-81
2022/07/04 00:46:29;;;;;;;5.32;1.80;;;15.90;99.90;;;;;;5109290;28;20200;-81
2022/07/04 00:48:56;;;;;;;3.92;1.50;;;15.80;99.90;;;;;;5108747;28;20208;-80
2022/07/04 00:51:23;;;;;;;6.95;2.35;;;15.80;99.90;;;;;;5109446;28;20208;-80
2022/07/04 00:53:51;;;;;;;5.45;2.03;;;15.80;99.90;;;;;;5104811;28;20318;-80
2022/07/04 00:56:18;;;;;;;6.40;2.15;;;15.80;99.90;;;;;;5105539;28;20227;-80
2022/07/04 00:58:45;;;;;;;6.57;1.90;;;15.80;99.90;;;;;;5110347;28;20237;-83
2022/07/04 01:01:13;;;;;;;6.25;2.33;;;15.70;99.90;;;;;;5108347;28;20235;-81
2022/07/04 01:03:40;;;;;;;6.25;2.15;;;15.70;99.90;;;;;;5105970;28;20315;-83
2022/07/04 01:06:08;;;;;;;6.63;2.35;;;15.70;99.90;;;;;;5101488;28;20210;-81
2022/07/04 01:08:36;;;;;;;6.03;1.92;;;15.60;99.90;;;;;;5105525;28;20208;-80
2022/07/04 01:11:03;;;;;;;7.60;2.47;;;15.70;99.90;;;;;;5100218;28;20204;-82
2022/07/04 01:13:30;;;;;;;3.27;1.70;;;15.60;99.90;;;;;;5109683;28;20233;-82
2022/07/04 01:15:57;;;;;;;6.00;2.17;;;15.60;99.90;;;;;;5109538;28;20204;-80
2022/07/04 01:18:25;;;;;;;6.13;1.95;;;15.60;99.90;;;;;;5095042;28;20200;-80
2022/07/04 01:20:53;;;;;;;4.50;2.08;;;15.60;99.90;;;;;;5107555;28;20218;-82
2022/07/04 01:23:20;;;;;;;4.75;1.73;;;15.60;99.90;;;;;;5107701;28;20207;-80
2022/07/04 01:25:48;;;;;;;6.65;2.05;;;15.50;99.90;;;;;;5094171;28;20692;-81
2022/07/04 01:28:15;;;;;;;5.55;1.73;;;15.50;99.90;;;;;;5108357;28;20202;-81
2022/07/04 01:30:42;;;;;;;5.78;1.90;;;15.50;99.90;;;;;;5106686;28;20242;-81
2022/07/04 01:33:09;;;;;;;3.70;1.80;;;15.50;99.90;;;;;;5099186;28;20528;-82
2022/07/04 01:35:36;;;;;;;6.47;2.25;;;15.40;99.90;;;;;;5107931;28;20208;-80
2022/07/04 01:38:04;;;;;;;11.73;2.03;;;15.40;99.90;;;;;;5107463;28;20273;-81
2022/07/04 01:40:31;;;;;;;7.35;2.15;;;15.40;99.90;;;;;;5100062;28;20626;-79
2022/07/04 01:42:58;;;;;;;6.63;2.00;;;15.40;99.90;;;;;;5105556;28;20208;-81
2022/07/04 01:45:26;;;;;;;7.20;2.10;;;15.40;99.90;;;;;;5107917;28;20211;-80
2022/07/04 01:47:52;;;;;;;6.47;2.47;;;15.40;99.90;;;;;;5108089;28;20726;-79
2022/07/04 01:50:19;;;;;;;8.00;2.43;;;15.30;99.90;;;;;;5093758;28;20214;-81
2022/07/04 01:52:46;;;;;;;6.22;2.22;;;15.30;99.90;;;;;;5105040;28;20226;-81
2022/07/04 01:55:15;;;;;;;5.88;1.90;;;15.30;99.90;;;;;;5107330;28;20212;-81
2022/07/04 01:57:42;;;;;;;4.53;1.83;;;15.30;99.90;;;;;;5107140;28;20234;-80
2022/07/04 02:02:56;;;;;;;4.73;1.80;;;15.30;99.90;;;;;;5107279;28;20248;-81
2022/07/04 02:05:23;;;;;;;3.80;1.63;;;15.30;99.90;;;;;;5107835;28;20212;-80
2022/07/04 02:07:51;;;;;;;3.23;1.90;;;15.30;99.90;;;;;;5106915;28;20730;-80
2022/07/04 02:10:19;;;;;;;4.78;1.80;;;15.30;99.90;;;;;;5105977;28;20210;-81
2022/07/04 02:13:04;;;;;;;5.57;1.80;;;15.20;99.90;;;;;;5102330;28;20293;-81
2022/07/04 02:15:33;;;;;;;5.63;1.83;;;15.20;99.90;;;;;;5107106;28;20207;-81
2022/07/04 02:18:01;;;;;;;9.00;2.20;;;15.20;99.90;;;;;;5107417;28;20238;-80
2022/07/04 02:20:29;;;;;;;6.40;2.43;;;15.30;99.90;;;;;;5096224;28;20196;-80
2022/07/04 02:22:55;;;;;;;7.77;2.37;;;15.30;99.90;;;;;;5107029;28;20318;-80
2022/07/04 02:25:24;;;;;;;9.02;2.55;;;15.30;99.90;;;;;;5092051;28;20207;-79
2022/07/04 02:27:51;;;;;;;6.57;2.40;;;15.40;99.90;;;;;;5105563;28;20216;-80
2022/07/04 02:30:18;;;;;;;8.70;2.83;;;15.50;99.90;;;;;;5095597;28;20722;-80
2022/07/04 02:32:45;;;;;;;11.97;3.10;;;15.50;99.90;;;;;;5103781;28;20203;-81
2022/07/04 02:35:12;;;;;;;14.20;3.10;;;15.60;99.90;;;;;;5110102;28;20207;-83
2022/07/04 02:37:39;;;;;;;8.82;2.75;;;15.80;99.90;;;;;;5100323;28;20240;-81
2022/07/04 02:40:08;;;;;;;10.70;3.00;;;15.90;99.90;;;;;;5100541;28;20198;-81
2022/07/04 02:42:37;;;;;;;11.75;3.85;;;16.00;99.90;;;;;;5121060;28;20211;-82
2022/07/04 02:45:04;;;;;;;8.05;3.05;;;16.20;99.90;;;;;;5115101;28;20290;-79
2022/07/04 02:47:31;;;;;;;8.35;3.30;;;16.30;99.90;;;;;;5111901;28;20201;-81
2022/07/04 02:50:01;;;;;;;11.20;3.55;;;16.40;99.90;;;;;;5115163;28;20212;-81
2022/07/04 02:52:28;;;;;;;13.43;3.88;;;16.40;99.90;;;;;;5114697;28;20508;-80
2022/07/04 02:54:55;;;;;;;9.05;2.65;;;16.50;99.90;;;;;;5106047;28;20286;-82
2022/07/04 02:57:22;;;;;;;9.75;2.60;;;16.50;99.90;;;;;;5098652;28;20224;-83
2022/07/04 02:59:51;;;;;;;11.93;3.38;;;16.50;99.90;;;;;;5107405;28;20218;-85
2022/07/04 03:02:18;;;;;;;7.97;2.90;;;16.60;99.90;;;;;;5107374;28;20403;-81
2022/07/04 03:04:44;;;;;;;10.07;2.90;;;16.60;99.90;;;;;;5105884;28;20204;-82
2022/07/04 03:07:11;;;;;;;12.48;3.58;;;16.60;99.90;;;;;;5105936;28;20200;-80
2022/07/04 03:09:38;;;;;;;10.88;2.92;;;16.70;99.90;;;;;;5102710;28;20681;-81
2022/07/04 03:12:06;;;;;;;8.10;2.78;;;16.60;99.90;;;;;;5106944;28;20888;-82
2022/07/04 03:14:33;;;;;;;8.85;2.78;;;16.70;99.90;;;;;;5103988;28;20212;-82
2022/07/04 03:17:01;;;;;;;11.73;3.35;;;16.70;99.90;;;;;;5106563;28;20234;-83
2022/07/04 03:19:28;;;;;;;17.80;4.03;;;16.70;99.90;;;;;;5108622;28;20227;-82
2022/07/04 03:21:55;;;;;;;11.82;3.28;;;16.80;99.90;;;;;;5107350;28;20212;-83
2022/07/04 03:24:22;;;;;;;14.27;3.08;;;16.90;99.90;;;;;;5107521;28;20618;-84
2022/07/04 03:26:49;;;;;;;15.77;3.10;;;16.90;99.90;;;;;;5108855;28;20208;-79
2022/07/04 03:29:16;;;;;;;12.65;3.05;;;16.90;99.90;;;;;;5099079;28;20207;-85
2022/07/04 03:31:43;;;;;;;7.78;2.95;;;16.90;99.90;;;;;;5108351;28;20214;-84
2022/07/04 03:34:11;;;;;;;8.38;3.05;;;16.90;99.90;;;;;;5108585;28;20214;-82
2022/07/04 03:36:38;;;;;;;13.32;2.88;;;16.90;99.90;;;;;;5097008;28;20235;-82
2022/07/04 03:39:05;;;;;;;15.50;4.43;;;16.90;99.90;;;;;;5107641;28;20216;-82
2022/07/04 03:41:32;;;;;;;11.95;3.50;;;16.80;99.90;;;;;;5109029;28;20299;-81
2022/07/04 03:43:58;;;;;;;7.95;3.47;;;16.80;99.90;;;;;;5101877;28;20200;-83
2022/07/04 03:46:25;;;;;;;9.00;3.13;;;16.80;99.90;;;;;;5106563;28;20862;-83
2022/07/04 03:48:52;;;;;;;8.05;3.10;;;16.80;99.90;;;;;;5107750;28;20204;-84
2022/07/04 03:51:20;;;;;;;9.77;2.97;;;16.80;99.90;;;;;;5107281;28;20303;-83
2022/07/04 03:53:47;;;;;;;11.48;3.05;;;16.70;99.90;;;;;;5106622;28;20239;-82
2022/07/04 03:56:14;;;;;;;6.82;2.75;;;16.70;99.90;;;;;;5105771;28;20299;-83
2022/07/04 03:58:42;;;;;;;6.10;2.35;;;16.80;99.90;;;;;;5107706;28;20443;-82
2022/07/04 04:01:09;;;;;;;13.93;3.63;;;16.70;99.90;;;;;;5092119;28;20644;-84
2022/07/04 04:06:22;;;;;;;7.25;1.92;;;16.80;99.90;;;;;;5106447;28;20307;-82
2022/07/04 04:08:49;;;;;;;11.63;2.75;;;16.80;99.90;;;;;;5108087;28;20290;-83
2022/07/04 04:11:16;;;;;;;9.05;2.22;;;16.80;99.90;;;;;;5100281;28;20208;-85
2022/07/04 04:13:43;;;;;;;9.02;2.60;;;16.70;99.90;;;;;;5105186;28;20297;-84
2022/07/04 04:16:10;;;;;;;5.53;2.20;;;16.70;99.90;;;;;;5099837;28;20222;-83
2022/07/04 04:18:36;;;;;;;4.63;2.08;;;16.70;99.90;;;;;;5111876;28;20222;-84
2022/07/04 04:21:04;;;;;;;7.53;2.03;;;16.70;99.90;;;;;;5110013;28;20203;-83
2022/07/04 04:23:32;;;;;;;5.38;2.10;;;16.70;99.90;;;;;;5105725;28;20211;-83
2022/07/04 04:25:59;;;;;;;6.07;2.20;;;16.80;99.90;;;;;;5102807;28;20218;-84
2022/07/04 04:28:26;;;;;;;5.82;1.95;;;16.80;99.90;;;;;;5108044;28;20207;-83
2022/07/04 04:30:53;;;;;;;6.28;1.90;;;16.90;99.90;;;;;;5110614;28;20200;-82
2022/07/04 04:33:20;;;;;;;5.43;2.55;;;16.90;99.90;;;;;;5099626;28;20339;-83
2022/07/04 04:35:46;;;;;;;7.55;2.67;;;16.90;99.90;;;;;;5110786;28;20298;-85
2022/07/04 04:38:14;;;;;;;4.10;1.83;;;17.00;99.90;;;;;;5112159;28;20228;-84
2022/07/04 04:40:42;;;;;;;4.75;1.95;;;17.00;99.90;;;;;;5101786;28;20238;-83
2022/07/04 04:43:09;;;;;;;5.63;1.70;;;17.00;99.90;;;;;;5110907;28;20663;-84
2022/07/04 04:45:36;;;;;;;2.60;1.75;;;16.90;99.90;;;;;;5109729;28;20569;-83
2022/07/04 04:48:03;;;;;;;5.45;2.00;;;16.90;99.90;;;;;;5110569;28;20200;-81
2022/07/04 04:50:30;;;;;;;7.85;2.15;;;16.90;99.90;;;;;;5104341;28;20218;-84
2022/07/04 04:52:57;;;;;;;6.35;1.75;;;16.80;99.90;;;;;;5111996;28;20583;-85
2022/07/04 04:55:24;;;;;;;3.53;1.63;;;16.90;99.90;;;;;;5110968;28;20235;-84
2022/07/04 04:57:53;;;;;;;2.90;1.52;;;16.90;99.90;;;;;;5112042;28;20885;-83
2022/07/04 05:00:20;;;;;;;4.18;2.15;;;16.90;99.90;;;;;;5112372;28;20218;-85
2022/07/04 05:02:47;;;;;;;2.58;1.98;;;17.00;99.90;;;;;;5110119;28;20207;-85
2022/07/04 05:05:14;;;;;;;4.07;2.05;;;17.00;99.90;;;;;;5094929;28;20208;-85
2022/07/04 05:07:41;;;;;;;3.90;1.80;;;17.10;99.90;;;;;;5112534;28;20210;-83
2022/07/04 05:10:10;;;;;;;2.85;1.70;;;17.20;99.90;;;;;;5113025;28;20203;-88
2022/07/04 05:12:37;;;;;;;3.35;1.95;;;17.20;99.90;;;;;;5112836;28;20300;-82
2022/07/04 05:15:06;;;;;;;2.90;1.60;;;17.40;99.90;;;;;;5112606;28;20215;-83
2022/07/04 05:17:33;;;;;;;4.13;2.00;;;17.50;99.90;;;;;;5111868;28;20312;-85
2022/07/04 05:20:00;;;;;;;3.88;2.05;;;17.60;99.90;;;;;;5112561;28;20529;-88
2022/07/04 05:22:27;;;;;;;5.93;2.05;;;17.70;99.90;;;;;;5105043;28;20204;-85
2022/07/04 05:24:54;;;;;;;3.30;1.63;;;17.90;99.90;;;;;;5112010;28;20202;-85
2022/07/04 05:27:20;;;;;;;3.28;1.77;;;18.00;99.90;;;;;;5112536;28;20214;-85
2022/07/04 05:29:47;;;;;;;2.25;1.40;;;18.10;99.90;;;;;;5111166;28;20283;-85
2022/07/04 05:32:16;;;;;;;2.05;1.55;;;18.40;99.90;;;;;;5112031;28;20200;-84
2022/07/04 05:34:42;;;;;;;4.72;2.00;;;18.60;99.90;;;;;;5113224;28;20377;-85
2022/07/04 05:37:09;;;;;;;2.83;1.70;;;18.90;99.90;;;;;;5108985;28;20663;-88
2022/07/04 05:39:36;;;;;;;2.95;1.77;;;19.20;99.90;;;;;;5112666;28;20199;-82
2022/07/04 05:42:03;;;;;;;2.72;1.75;;;19.40;99.90;;;;;;5112312;28;20212;-85
2022/07/04 05:44:31;;;;;;;2.88;1.92;;;19.80;99.90;;;;;;5112563;28;20203;-86
2022/07/04 05:46:57;;;;;;;3.60;1.90;;;20.00;99.90;;;;;;5111972;28;20210;-83
2022/07/04 05:49:26;;;;;;;3.80;1.70;;;20.30;99.90;;;;;;5111722;28;20231;-84
2022/07/04 05:51:53;;;;;;;2.38;1.55;;;20.50;99.90;;;;;;5111374;28;20294;-89
2022/07/04 05:54:20;;;;;;;3.40;1.60;;;20.80;99.90;;;;;;5107568;28;20219;-87
2022/07/04 05:56:46;;;;;;;3.08;1.67;;;20.90;99.90;;;;;;5111994;28;20291;-85
2022/07/04 05:59:13;;;;;;;2.90;1.67;;;21.10;99.90;;;;;;5110975;28;20220;-87
2022/07/04 06:01:40;;;;;;;2.88;1.58;;;21.30;99.90;;;;;;5111245;28;20311;-83
2022/07/04 06:04:07;;;;;;;2.83;1.75;;;21.50;99.90;;;;;;5111855;28;20203;-86
2022/07/04 06:06:36;;;;;;;3.20;1.77;;;21.70;99.90;;;;;;5111496;28;20760;-84
2022/07/04 06:09:03;;;;;;;2.58;1.50;;;21.90;99.90;;;;;;5111481;28;20211;-86
2022/07/04 06:11:31;;;;;;;2.45;1.48;;;22.10;99.90;;;;;;5107883;28;20208;-85
2022/07/04 06:13:58;;;;;;;2.47;1.30;;;22.20;99.90;;;;;;5109409;28;20257;-83
2022/07/04 06:16:25;;;;;;;2.45;1.50;;;22.50;99.90;;;;;;5111391;28;20196;-83
2022/07/04 06:18:51;;;;;;;3.55;1.58;;;22.70;99.90;;;;;;5111309;28;21016;-83
2022/07/04 06:21:18;;;;;;;4.72;1.50;;;23.00;99.90;;;;;;5100704;28;20311;-83
2022/07/04 06:23:47;;;;;;;3.83;1.35;;;23.20;99.90;;;;;;5106145;28;20592;-85
2022/07/04 06:26:14;;;;;;;2.28;1.42;;;23.30;99.90;;;;;;5110119;28;20938;-82
2022/07/04 06:28:41;;;;;;;2.90;1.23;;;23.40;99.90;;;;;;5108981;28;20535;-84
2022/07/04 06:31:08;;;;;;;2.22;1.38;;;23.40;99.90;;;;;;5109358;28;20211;-86
2022/07/04 06:35:44;;;;;;;4.20;1.73;;;23.30;99.90;;;;;;5104049;28;20200;-87
2022/07/04 06:36:21;;;;;;;4.70;1.40;;;23.50;99.90;;;;;;5109741;28;20243;-84
2022/07/04 06:38:50;;;;;;;1.85;1.40;;;23.60;99.90;;;;;;5094136;28;20235;-86
2022/07/04 06:41:16;;;;;;;2.70;1.27;;;23.60;99.90;;;;;;5104524;28;20205;-90
2022/07/04 06:43:43;;;;;;;2.85;1.30;;;23.40;99.90;;;;;;5098170;28;20526;-87
2022/07/04 06:46:10;;;;;;;3.35;1.60;;;23.70;99.90;;;;;;5110560;28;20215;-85
2022/07/04 06:48:37;;;;;;;3.03;1.08;;;23.90;99.90;;;;;;5111885;28;20283;-87
2022/07/04 06:51:04;;;;;;;3.90;1.27;;;23.90;99.90;;;;;;5102192;28;20207;-84
2022/07/04 06:53:31;;;;;;;3.97;1.40;;;24.10;99.90;;;;;;5111674;28;20246;-84
2022/07/04 06:55:59;;;;;;;2.97;1.30;;;24.20;99.90;;;;;;5111729;28;20909;-89
2022/07/04 06:58:26;;;;;;;2.22;1.20;;;24.30;99.90;;;;;;5112396;28;20653;-85
2022/07/04 07:00:53;;;;;;;2.85;1.25;;;24.40;99.90;;;;;;5107538;28;20300;-84
2022/07/04 07:03:20;;;;;;;1.92;1.10;;;24.30;99.90;;;;;;5107398;28;20234;-89
2022/07/04 07:05:47;;;;;;;2.53;1.33;;;24.40;99.90;;;;;;5111461;28;20303;-86
2022/07/04 07:08:14;;;;;;;2.58;1.17;;;24.50;99.90;;;;;;5097533;28;20214;-85
2022/07/04 07:10:41;;;;;;;3.58;1.38;;;24.50;99.90;;;;;;5111129;28;20212;-83
2022/07/04 07:13:10;;;;;;;2.60;1.33;;;24.70;99.90;;;;;;5109543;28;20200;-85
2022/07/04 07:15:37;;;;;;;2.47;1.30;;;24.80;99.90;;;;;;5107694;28;20211;-87
2022/07/04 07:18:04;;;;;;;3.53;1.55;;;25.10;99.90;;;;;;5105113;28;20224;-88
2022/07/04 07:20:31;;;;;;;2.03;1.15;;;25.20;99.90;;;;;;5109814;28;20214;-85
2022/07/04 07:22:58;;;;;;;2.65;1.30;;;25.30;99.90;;;;;;5109411;28;20310;-89
2022/07/04 07:25:25;;;;;;;4.18;1.20;;;25.40;99.90;;;;;;5109865;28;20235;-89
2022/07/04 07:27:52;;;;;;;1.77;1.20;;;25.70;99.90;;;;;;5109833;28;20203;-87
2022/07/04 07:30:20;;;;;;;2.22;0.90;;;25.70;99.90;;;;;;5109504;28;20210;-87
2022/07/04 07:32:48;;;;;;;3.30;1.20;;;25.70;99.90;;;;;;5109901;28;20208;-87
2022/07/04 07:35:15;;;;;;;6.22;1.48;;;25.60;99.90;;;;;;5098643;28;20205;-82
2022/07/04 07:37:42;;;;;;;3.08;1.20;;;25.40;99.90;;;;;;5091806;28;20841;-86
2022/07/04 07:40:10;;;;;;;2.25;1.10;;;25.50;99.90;;;;;;5096360;28;20224;-86
2022/07/04 07:42:37;;;;;;;1.95;1.13;;;25.40;99.90;;;;;;5094034;28;20628;-86
2022/07/04 07:45:05;;;;;;;2.22;1.33;;;25.00;99.90;;;;;;5102320;28;20200;-84
2022/07/04 07:47:33;;;;;;;2.10;1.08;;;24.70;99.90;;;;;;5099026;28;20485;-89
2022/07/04 07:50:02;;;;;;;4.03;1.65;;;24.70;99.90;;;;;;5100777;28;20204;-88
2022/07/04 07:52:30;;;;;;;2.00;1.10;;;24.50;99.90;;;;;;5106534;28;20230;-89
2022/07/04 07:54:58;;;;;;;2.80;1.40;;;24.40;99.90;;;;;;5107263;28;20207;-84
2022/07/04 07:57:25;;;;;;;2.75;1.35;;;24.50;99.90;;;;;;5098975;28;20212;-87
2022/07/04 07:59:55;;;;;;;2.55;1.40;;;24.30;99.90;;;;;;5105635;28;20238;-87
2022/07/04 08:04:33;;;;;;;2.22;1.23;;;24.40;99.90;;;;;;5107842;28;20238;-87
2022/07/04 08:05:11;;;;;;;4.97;1.60;;;24.30;99.90;;;;;;5109762;28;20260;-89
2022/07/04 08:07:39;;;;;;;4.00;1.58;;;24.20;99.90;;;;;;5103009;28;20260;-88
2022/07/04 08:10:08;;;;;;;6.10;1.48;;;24.40;99.90;;;;;;5105514;28;20215;-87
2022/07/04 08:12:35;;;;;;;4.10;1.65;;;24.50;99.90;;;;;;5105241;28;20220;-82
2022/07/04 08:15:02;;;;;;;2.78;1.48;;;24.40;99.90;;;;;;5103252;28;20798;-87
2022/07/04 08:17:29;;;;;;;4.70;1.45;;;24.20;99.90;;;;;;5106381;28;20216;-83
2022/07/04 08:19:56;;;;;;;1.70;1.15;;;24.20;99.90;;;;;;5097038;28;20350;-85
2022/07/04 08:22:25;;;;;;;3.85;1.40;;;24.20;99.90;;;;;;5103565;28;20309;-89
2022/07/04 08:24:52;;;;;;;6.00;1.73;;;24.20;99.90;;;;;;5103079;28;20217;-88
2022/07/04 08:27:20;;;;;;;2.65;1.05;;;24.30;99.90;;;;;;5095516;28;20216;-89
2022/07/04 08:29:47;;;;;;;3.05;1.23;;;24.50;99.90;;;;;;5098476;28;20208;-89
2022/07/04 08:32:14;;;;;;;3.78;1.45;;;24.70;99.90;;;;;;5103469;28;20660;-86
2022/07/04 08:34:44;;;;;;;3.08;1.20;;;24.60;99.90;;;;;;5099144;28;20667;-86
2022/07/04 08:37:10;;;;;;;3.97;1.40;;;24.70;99.90;;;;;;5113331;28;20236;-86
2022/07/04 08:39:39;;;;;;;2.97;1.30;;;24.70;99.90;;;;;;5113292;28;20238;-86
2022/07/04 08:42:16;;;;;;;4.80;1.65;;;24.80;99.90;;;;;;5110076;28;20218;-84
2022/07/04 09:44:25;;;;;;;2.70;1.30;;;25.80;99.90;;;;;;5123657;27;20584;-81
2022/07/04 09:46:52;;;;;;;4.90;1.55;;;26.00;99.90;;;;;;5140246;27;20238;-82
2022/07/04 09:49:19;;;;;;;3.75;1.10;;;25.80;99.90;;;;;;5122465;27;20456;-84
2022/07/04 09:51:48;;;;;;;3.05;1.38;;;25.90;99.90;;;;;;5128254;27;20202;-84
2022/07/04 09:54:22;;;;;;;2.55;1.23;;;25.80;99.90;;;;;;5138599;27;20202;-84
2022/07/04 09:56:52;;;;;;;1.60;1.00;;;26.20;99.90;;;;;;5134139;27;20617;-85
2022/07/04 09:59:19;;;;;;;2.28;1.35;;;26.30;99.90;;;;;;5132485;27;20202;-90
2022/07/04 10:01:47;;;;;;;3.28;1.30;;;26.50;99.90;;;;;;5119340;27;20203;-87
2022/07/04 10:04:15;;;;;;;3.88;1.40;;;26.30;99.90;;;;;;5152402;27;20241;-86
2022/07/04 10:06:43;;;;;;;2.90;1.20;;;25.80;99.90;;;;;;5146804;27;20259;-86
2022/07/04 10:09:12;;;;;;;3.13;1.30;;;25.80;99.90;;;;;;5136183;27;20282;-87
2022/07/04 10:11:40;;;;;;;2.80;1.23;;;25.90;99.90;;;;;;5129345;27;20206;-87
2022/07/04 10:14:08;;;;;;;3.38;1.30;;;26.10;99.90;;;;;;5130259;27;20207;-86
2022/07/04 10:16:36;;;;;;;1.98;1.33;;;26.30;99.90;;;;;;5131481;27;20238;-86
2022/07/04 10:19:05;;;;;;;4.22;1.52;;;26.30;99.90;;;;;;5129383;27;20210;-87
2022/07/04 10:21:39;;;;;;;2.40;1.13;;;26.40;99.90;;;;;;5124332;27;20207;-83
2022/07/04 10:24:08;;;;;;;2.58;1.13;;;26.40;99.90;;;;;;5125291;27;20270;-86
2022/07/04 10:26:35;;;;;;;2.75;1.20;;;26.40;99.90;;;;;;5127464;27;20211;-90
2022/07/04 10:29:02;;;;;;;4.72;1.50;;;26.50;99.90;;;;;;5118146;27;20583;-83
2022/07/04 10:31:31;;;;;;;2.97;1.10;;;26.20;99.90;;;;;;5123478;27;20211;-84
2022/07/04 10:33:59;;;;;;;6.97;1.60;;;26.10;99.90;;;;;;5126387;27;20857;-86
2022/07/04 10:36:29;;;;;;;6.45;1.27;;;26.10;99.90;;;;;;5118777;27;20213;-86
2022/07/04 10:38:59;;;;;;;1.75;0.90;;;26.00;99.90;;;;;;5122330;27;20640;-85
2022/07/04 10:41:27;;;;;;;3.75;1.35;;;26.00;99.90;;;;;;5120710;27;20211;-80
2022/07/04 10:44:05;;;;;;;3.55;1.30;;;26.00;99.90;;;;;;5120640;27;20307;-82
2022/07/04 10:46:47;;;;;;;2.55;0.90;;;26.10;99.90;;;;;;5113945;27;20218;-85
2022/07/04 10:49:25;;;;;;;2.28;1.00;;;26.30;99.90;;;;;;5115078;27;20196;-85
2022/07/04 10:52:02;;;;;;;2.25;1.02;;;26.30;99.90;;;;;;5114048;27;20231;-84
2022/07/04 10:54:33;;;;;;;4.18;0.98;;;26.50;99.90;;;;;;5108379;27;20214;-82
2022/07/04 10:57:13;;;;;;;3.67;1.17;;;26.70;99.90;;;;;;5115685;27;20208;-84
2022/07/04 10:59:41;;;;;;;1.15;0.95;;;26.60;99.90;;;;;;5117192;27;20737;-83
2022/07/04 11:02:27;;;;;;;2.40;1.10;;;26.60;99.90;;;;;;5114020;27;20695;-85
2022/07/04 11:05:06;;;;;;;2.67;1.15;;;26.60;99.90;;;;;;5104391;27;20662;-85
2022/07/04 11:08:00;;;;;;;3.63;1.20;;;26.60;99.90;;;;;;5114484;27;20602;-85
2022/07/04 11:10:27;;;;;;;3.20;1.13;;;26.60;99.90;;;;;;5111800;27;20230;-82
2022/07/04 11:13:19;;;;;;;2.35;0.88;;;26.50;99.90;;;;;;5105757;27;20643;-86
2022/07/04 11:16:01;;;;;;;5.05;1.27;;;26.70;99.90;;;;;;5099200;27;20561;-86
2022/07/04 11:18:29;;;;;;;2.22;1.35;;;26.50;99.90;;;;;;5110423;27;20260;-86
2022/07/04 11:20:56;;;;;;;5.32;1.30;;;26.40;99.90;;;;;;5111118;27;20223;-85
2022/07/04 11:23:25;;;;;;;1.67;1.00;;;26.30;99.90;;;;;;5112755;27;20201;-86
2022/07/04 11:25:55;;;;;;;2.85;1.25;;;26.30;99.90;;;;;;5105854;27;20872;-85
2022/07/04 11:28:24;;;;;;;3.63;1.13;;;26.40;99.90;;;;;;5106840;27;20204;-90
2022/07/04 11:30:52;;;;;;;3.08;1.35;;;26.50;99.90;;;;;;5113193;27;20208;-87
2022/07/04 11:33:21;;;;;;;2.90;1.23;;;26.40;99.90;;;;;;5115729;27;20232;-88
2022/07/04 11:36:11;;;;;;;2.55;0.90;;;26.30;99.90;;;;;;5116343;27;20211;-89
2022/07/04 11:38:48;;;;;;;2.50;0.98;;;26.30;99.90;;;;;;5101902;27;20216;-92
2022/07/04 11:46:51;;;;;;;1.42;1.00;;;26.20;99.90;;;;;;5110566;27;20725;-87
2022/07/04 11:49:17;;;;;;;3.60;1.27;;;25.80;99.90;;;;;;5120838;27;20231;-80
2022/07/04 11:51:46;;;;;;;3.33;0.95;;;25.80;99.90;;;;;;5105194;27;20299;-88
2022/07/04 11:54:15;;;;;;;1.52;0.80;;;25.80;99.90;;;;;;5095546;28;20323;-87
2022/07/04 11:56:42;;;;;;;1.30;0.90;;;26.00;99.90;;;;;;5111425;27;20312;-91
2022/07/04 11:59:14;;;;;;;2.60;1.27;;;26.40;99.90;;;;;;5099114;28;20221;-85
2022/07/04 12:01:42;;;;;;;1.13;0.80;;;26.40;99.90;;;;;;5103784;27;20317;-89
2022/07/04 12:04:17;;;;;;;2.53;0.75;;;26.40;99.90;;;;;;5117526;27;20212;-88
2022/07/04 12:06:45;;;;;;;2.35;0.75;;;26.10;99.90;;;;;;5112844;27;20227;-85
2022/07/04 12:09:16;;;;;;;0.65;0.55;;;26.30;99.90;;;;;;5109966;27;20268;-84
2022/07/04 12:11:57;;;;;;;1.77;0.68;;;26.20;99.90;;;;;;5116028;27;20538;-88
2022/07/04 12:14:24;;;;;;;1.88;1.00;;;26.00;99.90;;;;;;5100701;27;20963;-88
2022/07/04 12:17:10;;;;;;;3.95;1.10;;;26.10;99.90;;;;;;5110279;27;20213;-87
2022/07/04 12:19:37;;;;;;;2.22;0.95;;;26.10;99.90;;;;;;5106688;27;20233;-89
2022/07/04 12:22:04;;;;;;;2.10;1.10;;;26.30;99.90;;;;;;5113862;27;20297;-82
2022/07/04 12:24:42;;;;;;;2.75;1.08;;;26.30;99.90;;;;;;5120735;27;20203;-86
2022/07/04 12:27:18;;;;;;;2.22;1.08;;;26.50;99.90;;;;;;5108542;27;20211;-84
2022/07/04 12:29:49;;;;;;;1.95;0.80;;;26.60;99.90;;;;;;5114462;27;20223;-88
2022/07/04 12:32:18;;;;;;;1.73;0.90;;;26.60;99.90;;;;;;5113455;27;20942;-87
2022/07/04 12:34:44;;;;;;;1.73;1.10;;;26.50;99.90;;;;;;5101128;28;20224;-86
2022/07/04 12:37:13;;;;;;;2.00;1.20;;;26.50;99.90;;;;;;5122745;27;20215;-89
2022/07/04 12:39:44;;;;;;;2.08;1.15;;;26.30;99.90;;;;;;5114541;27;20222;-83
2022/07/04 12:42:12;;;;;;;5.57;1.90;;;26.30;99.90;;;;;;5106532;27;20227;-84
2022/07/04 12:44:41;;;;;;;1.52;1.15;;;26.30;99.90;;;;;;5111526;27;20207;-87
2022/07/04 12:47:09;;;;;;;1.67;0.80;;;26.30;99.90;;;;;;5094110;27;20295;-88
2022/07/04 12:49:36;;;;;;;3.35;0.73;;;26.20;99.90;;;;;;5091213;28;20242;-83
2022/07/04 12:52:08;;;;;;;2.80;1.08;;;26.30;99.90;;;;;;5103688;27;20833;-81
2022/07/04 12:54:35;;;;;;;2.80;1.35;;;26.40;99.90;;;;;;5102024;27;20332;-84
2022/07/04 12:57:10;;;;;;;4.63;0.98;;;26.30;99.90;;;;;;5100275;27;20208;-84
2022/07/04 12:59:37;;;;;;;2.38;0.80;;;26.20;99.90;;;;;;5103929;27;20211;-89
2022/07/04 13:02:04;;;;;;;3.17;1.23;;;26.10;99.90;;;;;;5100494;27;20212;-86
2022/07/04 13:04:32;;;;;;;3.28;1.33;;;25.90;99.90;;;;;;5095726;27;20189;-84
2022/07/04 13:07:00;;;;;;;2.17;1.20;;;25.80;99.90;;;;;;5107801;27;20208;-82
2022/07/04 13:09:27;;;;;;;2.67;0.93;;;25.80;99.90;;;;;;5108464;27;20736;-85
2022/07/04 13:14:40;;;;;;;2.55;1.38;;;25.90;99.90;;;;;;5106347;27;20228;-86
2022/07/04 13:17:10;;;;;;;1.98;0.90;;;25.90;99.90;;;;;;5122890;27;20633;-86
2022/07/04 13:19:37;;;;;;;2.58;1.30;;;25.70;99.90;;;;;;5116590;27;20210;-88
2022/07/04 13:22:04;;;;;;;4.43;1.30;;;25.50;99.90;;;;;;5103993;28;20212;-87
2022/07/04 13:24:31;;;;;;;2.25;0.82;;;25.50;99.90;;;;;;5093836;28;20258;-86
2022/07/04 13:26:58;;;;;;;4.47;1.75;;;25.40;99.90;;;;;;5098760;28;20276;-86
2022/07/04 13:29:25;;;;;;;3.35;1.50;;;25.40;99.90;;;;;;5115192;27;20219;-88
2022/07/04 13:31:53;;;;;;;2.30;1.17;;;25.50;99.90;;;;;;5101874;28;20584;-89
2022/07/04 13:34:20;;;;;;;1.70;1.00;;;25.70;99.90;;;;;;5107250;28;20228;-86
2022/07/04 13:36:47;;;;;;;4.65;1.17;;;25.80;99.90;;;;;;5111230;27;20213;-85
2022/07/04 13:39:16;;;;;;;2.72;1.00;;;25.80;99.90;;;;;;5109069;27;20205;-82
2022/07/04 13:41:43;;;;;;;1.92;0.82;;;25.90;99.90;;;;;;5106341;27;20545;-83
2022/07/04 13:44:15;;;;;;;3.33;0.90;;;25.80;99.90;;;;;;5098235;28;20232;-83
2022/07/04 13:46:43;;;;;;;4.03;1.25;;;25.90;99.90;;;;;;5109046;28;20212;-86
2022/07/04 13:49:12;;;;;;;4.28;1.08;;;25.70;99.90;;;;;;5105565;28;20210;-88
2022/07/04 13:51:40;;;;;;;2.13;0.90;;;25.60;99.90;;;;;;5108027;28;20217;-86
2022/07/04 13:54:07;;;;;;;1.45;1.10;;;25.40;99.90;;;;;;5110045;28;20238;-89
2022/07/04 13:56:36;;;;;;;0.73;0.60;;;25.30;99.90;;;;;;5110591;28;20930;-82
2022/07/04 13:59:04;;;;;;;0.70;0.70;;;25.30;99.90;;;;;;5110793;28;20230;-89
2022/07/04 14:01:31;;;;;;;1.20;0.57;;;25.40;99.90;;;;;;5105845;28;20389;-85
2022/07/04 14:03:58;;;;;;;0.90;0.68;;;25.30;99.90;;;;;;5104726;28;20236;-85
2022/07/04 14:06:26;;;;;;;1.77;0.57;;;25.50;99.90;;;;;;5113947;28;20254;-85